Time;durP1;ratioP1;P1;durP2;ratioP2;P2;SDS_P1;SDS_P2;PMS_P1;PMS_P2;Temp;Humidity;BMP_temperature;BMP_pressure;BME280_temperature;BME280_humidity;BME280_pressure;Samples;Min_cycle;Max_cycle;Signal;HPM_P1;HPM_P2
2021/08/03 00:01:51;;;;;;;5.75;2.00;;;17.70;99.90;;;;;;5016284;28;20544;-79
2021/08/03 00:04:22;;;;;;;2.65;1.60;;;17.80;99.90;;;;;;5016137;28;20174;-79
2021/08/03 00:06:53;;;;;;;2.00;1.80;;;17.80;99.90;;;;;;5016137;28;20220;-82
2021/08/03 00:09:19;;;;;;;1.77;1.58;;;17.90;99.90;;;;;;5016209;28;20196;-79
2021/08/03 00:11:46;;;;;;;5.07;2.13;;;17.90;99.90;;;;;;5016136;28;20161;-78
2021/08/03 00:14:12;;;;;;;4.47;2.00;;;18.00;99.90;;;;;;5016187;28;20203;-77
2021/08/03 00:16:39;;;;;;;3.03;1.70;;;18.20;99.90;;;;;;5015606;28;20228;-79
2021/08/03 00:19:05;;;;;;;6.35;2.38;;;17.90;99.90;;;;;;5015690;28;20685;-78
2021/08/03 00:21:32;;;;;;;4.97;2.15;;;17.80;99.90;;;;;;5015557;28;20687;-78
2021/08/03 00:23:58;;;;;;;7.15;2.08;;;17.80;99.90;;;;;;5015968;28;20172;-80
2021/08/03 00:26:24;;;;;;;3.97;2.30;;;17.60;99.90;;;;;;5015688;28;20214;-78
2021/08/03 00:28:50;;;;;;;6.65;2.15;;;17.50;99.90;;;;;;5015338;28;20200;-78
2021/08/03 00:31:18;;;;;;;4.47;2.00;;;17.50;99.90;;;;;;5014191;28;20209;-79
2021/08/03 00:33:46;;;;;;;2.47;2.20;;;17.50;99.90;;;;;;5015030;28;20211;-79
2021/08/03 00:36:13;;;;;;;2.95;2.03;;;17.50;99.90;;;;;;5015275;28;20207;-79
2021/08/03 00:38:39;;;;;;;2.22;1.98;;;17.70;99.90;;;;;;5015455;28;20200;-79
2021/08/03 00:41:09;;;;;;;5.53;2.25;;;17.80;99.90;;;;;;5015486;28;20192;-77
2021/08/03 00:43:35;;;;;;;5.93;1.90;;;17.90;99.90;;;;;;5015516;28;20169;-79
2021/08/03 00:46:00;;;;;;;1.90;1.70;;;17.60;99.90;;;;;;5014933;28;20246;-78
2021/08/03 00:48:26;;;;;;;3.03;2.35;;;17.30;99.90;;;;;;5015151;28;20223;-79
2021/08/03 00:50:52;;;;;;;4.25;2.30;;;17.30;99.90;;;;;;5013741;28;20184;-78
2021/08/03 00:53:17;;;;;;;2.85;2.03;;;17.20;99.90;;;;;;5015802;28;20216;-78
2021/08/03 00:55:44;;;;;;;3.72;2.13;;;17.10;99.90;;;;;;5024978;28;20188;-77
2021/08/03 00:58:11;;;;;;;3.08;2.60;;;17.20;99.90;;;;;;5037219;28;20163;-78
2021/08/03 01:00:37;;;;;;;4.45;2.00;;;17.30;99.90;;;;;;5039297;28;20152;-78
2021/08/03 01:03:03;;;;;;;6.32;2.00;;;17.20;99.90;;;;;;5030069;28;20264;-78
2021/08/03 01:05:41;;;;;;;5.75;2.30;;;17.00;99.90;;;;;;5014718;28;20346;-78
2021/08/03 01:08:19;;;;;;;3.15;2.10;;;17.00;99.90;;;;;;5014903;28;20168;-79
2021/08/03 01:10:55;;;;;;;4.95;2.00;;;17.00;99.90;;;;;;5013908;28;20168;-79
2021/08/03 01:13:26;;;;;;;3.92;2.38;;;16.90;99.90;;;;;;5014516;28;20242;-79
2021/08/03 01:15:55;;;;;;;2.80;2.20;;;16.80;99.90;;;;;;5014389;28;20196;-78
2021/08/03 01:19:03;;;;;;;4.35;2.13;;;16.60;99.90;;;;;;5014245;28;20177;-80
2021/08/03 01:21:42;;;;;;;4.30;2.05;;;16.30;99.90;;;;;;5013653;28;20660;-81
2021/08/03 01:24:46;;;;;;;7.10;2.00;;;16.20;99.90;;;;;;5014493;28;20255;-79
2021/08/03 01:27:39;;;;;;;5.43;2.10;;;16.20;99.90;;;;;;5013115;28;20199;-79
2021/08/03 01:30:05;;;;;;;6.38;2.30;;;16.40;99.90;;;;;;5014525;28;20180;-79
2021/08/03 01:32:39;;;;;;;2.25;2.00;;;16.60;99.90;;;;;;5014165;28;20211;-78
2021/08/03 01:35:06;;;;;;;4.80;2.50;;;16.70;99.90;;;;;;5014119;28;20175;-81
2021/08/03 01:37:33;;;;;;;6.38;2.33;;;16.50;99.90;;;;;;5013980;28;20499;-80
2021/08/03 01:40:04;;;;;;;2.25;2.05;;;16.70;99.90;;;;;;5014651;28;20173;-79
2021/08/03 01:42:30;;;;;;;3.72;1.98;;;16.80;99.90;;;;;;5013970;28;20168;-82
2021/08/03 01:44:59;;;;;;;9.80;2.35;;;16.80;99.90;;;;;;5013937;28;20255;-79
2021/08/03 01:47:26;;;;;;;3.33;2.35;;;16.70;99.90;;;;;;5013352;28;20168;-80
2021/08/03 01:49:53;;;;;;;5.15;2.70;;;16.80;99.90;;;;;;5013738;28;20180;-79
2021/08/03 01:52:20;;;;;;;4.78;2.65;;;17.00;99.90;;;;;;5013327;28;20192;-80
2021/08/03 01:54:47;;;;;;;3.10;2.60;;;16.90;99.90;;;;;;5013864;28;20183;-79
2021/08/03 01:57:15;;;;;;;4.82;2.85;;;17.00;99.90;;;;;;5013708;28;20234;-79
2021/08/03 01:59:44;;;;;;;2.45;2.22;;;17.00;99.90;;;;;;5013692;28;20169;-80
2021/08/03 02:02:10;;;;;;;4.43;2.40;;;16.90;99.90;;;;;;5013534;28;20169;-80
2021/08/03 02:04:38;;;;;;;2.50;2.30;;;16.90;99.90;;;;;;5013789;28;20169;-81
2021/08/03 02:07:05;;;;;;;4.55;2.88;;;16.70;99.90;;;;;;5013501;28;20180;-79
2021/08/03 02:09:32;;;;;;;4.13;2.78;;;16.60;99.90;;;;;;5013607;28;20616;-79
2021/08/03 02:11:58;;;;;;;8.40;3.33;;;16.50;99.90;;;;;;5013487;28;20215;-81
2021/08/03 02:14:24;;;;;;;3.85;3.13;;;16.50;99.90;;;;;;5013667;28;20544;-80
2021/08/03 02:16:50;;;;;;;6.57;3.08;;;16.40;99.90;;;;;;5013393;28;20660;-80
2021/08/03 02:19:16;;;;;;;5.78;3.80;;;16.10;99.90;;;;;;5013575;28;20169;-81
2021/08/03 02:21:44;;;;;;;7.47;3.33;;;16.10;99.90;;;;;;5013458;28;20169;-80
2021/08/03 02:24:09;;;;;;;7.00;2.97;;;16.10;99.90;;;;;;5012836;28;20164;-80
2021/08/03 02:26:35;;;;;;;6.78;3.15;;;16.10;99.90;;;;;;5013314;28;20189;-80
2021/08/03 02:29:01;;;;;;;2.88;2.67;;;16.00;99.90;;;;;;5011863;28;20169;-81
2021/08/03 02:31:44;;;;;;;3.33;3.03;;;16.00;99.90;;;;;;5013529;28;20235;-80
2021/08/03 02:34:33;;;;;;;4.03;2.92;;;16.00;99.90;;;;;;5013002;28;20633;-81
2021/08/03 02:37:02;;;;;;;5.03;3.25;;;15.90;99.90;;;;;;5011720;28;20571;-80
2021/08/03 02:39:30;;;;;;;4.22;3.03;;;15.50;99.90;;;;;;5013279;28;20169;-83
2021/08/03 02:41:58;;;;;;;6.13;3.17;;;15.30;99.90;;;;;;5012059;28;20168;-81
2021/08/03 02:44:24;;;;;;;4.25;3.83;;;15.40;99.90;;;;;;5013536;28;20160;-81
2021/08/03 02:46:54;;;;;;;4.53;3.67;;;15.40;99.90;;;;;;5011540;28;20287;-83
2021/08/03 02:49:35;;;;;;;3.63;3.28;;;15.40;99.90;;;;;;5013309;28;20251;-81
2021/08/03 02:52:03;;;;;;;6.15;3.63;;;15.30;99.90;;;;;;5011944;28;20200;-80
2021/08/03 02:54:34;;;;;;;4.53;3.47;;;15.30;99.90;;;;;;5011495;28;20183;-81
2021/08/03 02:57:03;;;;;;;4.10;3.70;;;15.30;99.90;;;;;;5011146;28;20188;-80
2021/08/03 02:59:34;;;;;;;10.70;3.85;;;15.40;99.90;;;;;;5012487;28;20172;-79
2021/08/03 03:02:03;;;;;;;5.47;4.32;;;15.30;99.90;;;;;;5011883;28;20629;-84
2021/08/03 03:04:36;;;;;;;8.18;4.60;;;15.40;99.90;;;;;;5012994;28;20259;-80
2021/08/03 03:07:31;;;;;;;5.53;3.75;;;15.50;99.90;;;;;;5012857;28;20195;-79
2021/08/03 03:09:57;;;;;;;4.63;4.00;;;15.70;99.90;;;;;;5011106;28;20573;-79
2021/08/03 03:12:26;;;;;;;4.65;4.03;;;15.60;99.90;;;;;;5011888;28;20231;-79
2021/08/03 03:14:56;;;;;;;4.90;4.50;;;15.60;99.90;;;;;;5012452;28;20175;-83
2021/08/03 03:17:23;;;;;;;8.57;4.55;;;15.60;99.90;;;;;;5011676;28;20591;-80
2021/08/03 03:19:50;;;;;;;7.57;5.13;;;15.60;99.90;;;;;;5013464;28;20171;-81
2021/08/03 03:22:16;;;;;;;10.40;4.22;;;15.70;99.90;;;;;;5011215;28;20644;-81
2021/08/03 03:24:44;;;;;;;12.27;4.95;;;15.40;99.90;;;;;;5013031;28;20168;-79
2021/08/03 03:27:10;;;;;;;8.13;4.57;;;15.30;99.90;;;;;;5012768;28;20722;-79
2021/08/03 03:29:38;;;;;;;11.13;4.65;;;15.50;99.90;;;;;;5012841;28;20156;-80
2021/08/03 03:32:04;;;;;;;5.65;4.70;;;15.40;99.90;;;;;;5012470;28;20192;-80
2021/08/03 03:34:32;;;;;;;13.98;4.72;;;15.60;99.90;;;;;;5012364;28;20573;-81
2021/08/03 03:36:59;;;;;;;8.63;5.32;;;15.60;99.90;;;;;;5011141;28;20246;-83
2021/08/03 03:39:25;;;;;;;16.00;6.30;;;15.70;99.90;;;;;;5011515;28;20164;-80
2021/08/03 03:42:01;;;;;;;10.43;5.75;;;15.80;99.90;;;;;;5012530;28;20200;-80
2021/08/03 03:44:28;;;;;;;16.63;5.93;;;15.60;99.90;;;;;;5013054;28;20168;-79
2021/08/03 03:47:11;;;;;;;13.43;5.97;;;15.60;99.90;;;;;;5011877;28;20195;-81
2021/08/03 03:49:40;;;;;;;7.38;4.95;;;15.30;99.90;;;;;;5017891;28;20187;-80
2021/08/03 03:52:07;;;;;;;8.55;5.10;;;15.30;99.90;;;;;;5036859;28;20212;-80
2021/08/03 03:54:39;;;;;;;17.02;5.70;;;15.30;99.90;;;;;;5032309;28;20243;-81
2021/08/03 03:57:08;;;;;;;6.90;5.60;;;15.30;99.90;;;;;;5034878;28;20185;-80
2021/08/03 03:59:37;;;;;;;7.55;5.43;;;15.40;99.90;;;;;;5017826;28;20529;-80
2021/08/03 04:05:26;;;;;;;7.38;5.07;;;15.50;99.90;;;;;;5012521;28;20300;-78
2021/08/03 04:07:52;;;;;;;5.85;5.25;;;15.60;99.90;;;;;;5010980;28;20177;-79
2021/08/03 04:10:33;;;;;;;6.85;5.07;;;15.50;99.90;;;;;;5012424;28;20191;-79
2021/08/03 04:12:59;;;;;;;7.18;5.38;;;15.50;99.90;;;;;;5012127;28;20215;-80
2021/08/03 04:15:25;;;;;;;11.43;5.03;;;15.50;99.90;;;;;;5015119;28;20231;-79
2021/08/03 04:17:51;;;;;;;7.95;5.63;;;15.60;99.90;;;;;;5015963;28;20176;-79
2021/08/03 04:20:17;;;;;;;8.00;5.38;;;15.40;99.90;;;;;;5016063;28;20161;-79
2021/08/03 04:22:42;;;;;;;11.63;5.65;;;15.30;99.90;;;;;;5015774;28;20526;-80
2021/08/03 04:25:09;;;;;;;8.02;5.72;;;15.40;99.90;;;;;;5015446;28;20230;-79
2021/08/03 04:27:34;;;;;;;6.95;5.20;;;15.50;99.90;;;;;;5015368;28;20173;-80
2021/08/03 04:30:00;;;;;;;9.63;5.07;;;15.70;99.90;;;;;;5015449;28;20178;-81
2021/08/03 04:32:25;;;;;;;5.95;5.35;;;15.60;99.90;;;;;;5015477;28;20235;-79
2021/08/03 04:34:51;;;;;;;14.02;5.53;;;15.50;99.90;;;;;;5015527;28;20168;-79
2021/08/03 04:37:17;;;;;;;6.22;5.63;;;15.60;99.90;;;;;;5015420;28;20185;-79
2021/08/03 04:39:42;;;;;;;7.05;5.43;;;15.70;99.90;;;;;;5015405;28;20179;-79
2021/08/03 04:42:08;;;;;;;10.52;5.15;;;15.80;99.90;;;;;;5015562;28;20179;-79
2021/08/03 04:44:33;;;;;;;5.70;5.15;;;15.70;99.90;;;;;;5015489;28;20168;-80
2021/08/03 04:46:59;;;;;;;5.28;4.78;;;15.70;99.90;;;;;;5015206;28;20946;-80
2021/08/03 04:49:25;;;;;;;6.82;5.30;;;15.40;99.90;;;;;;5015300;28;20215;-80
2021/08/03 04:51:51;;;;;;;11.10;5.07;;;15.40;99.90;;;;;;5015284;28;20175;-81
2021/08/03 04:54:17;;;;;;;13.38;5.22;;;15.40;99.90;;;;;;5015103;28;20204;-80
2021/08/03 04:56:43;;;;;;;12.32;5.78;;;15.40;99.90;;;;;;5015426;28;20687;-79
2021/08/03 04:59:08;;;;;;;7.70;4.70;;;15.60;99.90;;;;;;5013678;28;20164;-81
2021/08/03 05:01:35;;;;;;;8.63;5.50;;;15.70;99.90;;;;;;5014958;28;20164;-78
2021/08/03 05:04:00;;;;;;;8.95;5.20;;;15.80;99.90;;;;;;5014781;28;20169;-79
2021/08/03 05:06:26;;;;;;;9.00;5.60;;;15.90;99.90;;;;;;5013350;28;20246;-81
2021/08/03 05:08:52;;;;;;;9.65;5.55;;;16.00;99.90;;;;;;5015445;28;20171;-80
2021/08/03 05:11:17;;;;;;;8.35;5.00;;;15.70;99.90;;;;;;5015880;28;20177;-82
2021/08/03 05:13:43;;;;;;;11.32;5.80;;;15.70;99.90;;;;;;5016483;28;20755;-80
2021/08/03 05:16:09;;;;;;;6.38;4.78;;;15.50;99.90;;;;;;5014489;28;20197;-79
2021/08/03 05:18:35;;;;;;;8.25;5.88;;;15.40;99.90;;;;;;5013794;28;20173;-80
2021/08/03 05:21:00;;;;;;;6.80;4.82;;;15.40;99.90;;;;;;5014955;28;20173;-80
2021/08/03 05:23:26;;;;;;;11.55;5.55;;;15.40;99.90;;;;;;5015314;28;20596;-81
2021/08/03 05:25:52;;;;;;;7.05;4.63;;;15.30;99.90;;;;;;5012584;28;20193;-79
2021/08/03 05:28:18;;;;;;;4.72;4.10;;;15.10;99.90;;;;;;5015058;28;20196;-79
2021/08/03 05:30:46;;;;;;;7.18;4.28;;;15.20;99.90;;;;;;5014682;28;20171;-80
2021/08/03 05:33:11;;;;;;;14.85;4.43;;;15.30;99.90;;;;;;5013402;28;20254;-79
2021/08/03 05:35:37;;;;;;;9.77;5.25;;;15.30;99.90;;;;;;5014460;28;20200;-78
2021/08/03 05:38:05;;;;;;;8.20;4.25;;;15.50;99.90;;;;;;5014753;28;20164;-80
2021/08/03 05:40:31;;;;;;;5.95;4.68;;;15.60;99.90;;;;;;5015249;28;20171;-78
2021/08/03 05:42:56;;;;;;;8.48;4.35;;;15.80;99.90;;;;;;5014509;28;20327;-82
2021/08/03 05:45:23;;;;;;;7.97;5.53;;;15.90;99.90;;;;;;5014813;28;20191;-80
2021/08/03 05:47:50;;;;;;;14.70;5.35;;;16.10;99.90;;;;;;5014757;28;20179;-80
2021/08/03 05:50:15;;;;;;;7.07;4.97;;;16.30;99.90;;;;;;5014773;28;20164;-80
2021/08/03 05:52:41;;;;;;;9.85;5.25;;;16.40;99.90;;;;;;5014512;28;20330;-81
2021/08/03 05:55:07;;;;;;;10.02;5.65;;;16.40;99.90;;;;;;5014330;28;20255;-79
2021/08/03 05:57:33;;;;;;;12.00;5.28;;;16.40;99.90;;;;;;5013508;28;20180;-79
2021/08/03 05:59:58;;;;;;;11.75;5.70;;;16.60;99.90;;;;;;5013691;28;20172;-79
2021/08/03 06:02:24;;;;;;;7.75;5.63;;;16.50;99.90;;;;;;5015133;28;20247;-81
2021/08/03 06:04:50;;;;;;;13.45;5.68;;;16.70;99.90;;;;;;5014372;28;20203;-79
2021/08/03 06:07:17;;;;;;;5.28;4.68;;;16.90;99.90;;;;;;5013928;28;20199;-79
2021/08/03 06:09:43;;;;;;;10.18;5.40;;;16.90;99.90;;;;;;5013618;28;20172;-79
2021/08/03 06:12:10;;;;;;;9.88;5.57;;;17.00;99.90;;;;;;5012528;28;20703;-79
2021/08/03 06:14:44;;;;;;;5.97;5.03;;;16.60;99.90;;;;;;5014419;28;20664;-80
2021/08/03 06:17:13;;;;;;;9.15;4.47;;;16.50;99.90;;;;;;5014004;28;20956;-82
2021/08/03 06:19:45;;;;;;;6.72;4.40;;;16.70;99.90;;;;;;4992638;28;20184;-79
2021/08/03 06:22:11;;;;;;;4.93;4.47;;;16.80;99.90;;;;;;4993645;28;20172;-79
2021/08/03 06:24:38;;;;;;;5.68;4.85;;;16.80;99.90;;;;;;4992800;28;20174;-83
2021/08/03 06:27:16;;;;;;;5.82;5.22;;;16.80;99.90;;;;;;4992988;28;20235;-80
2021/08/03 06:29:43;;;;;;;5.82;4.28;;;16.90;99.90;;;;;;4993489;28;20173;-79
2021/08/03 06:32:10;;;;;;;9.20;4.68;;;17.00;99.90;;;;;;4993457;28;20243;-79
2021/08/03 06:34:44;;;;;;;6.80;4.03;;;17.20;99.90;;;;;;4994233;28;20161;-78
2021/08/03 06:37:10;;;;;;;9.15;4.40;;;17.20;99.90;;;;;;4993753;28;20204;-78
2021/08/03 06:39:36;;;;;;;4.65;4.18;;;17.10;99.90;;;;;;4992711;28;20558;-78
2021/08/03 06:42:39;;;;;;;6.30;4.28;;;17.10;99.90;;;;;;5004813;28;20181;-78
2021/08/03 06:45:11;;;;;;;7.15;4.07;;;17.30;99.90;;;;;;5002554;28;20203;-79
2021/08/03 06:48:07;;;;;;;7.32;4.47;;;17.20;99.90;;;;;;5013527;28;20222;-78
2021/08/03 06:50:41;;;;;;;5.43;4.53;;;17.30;99.90;;;;;;4994040;28;20299;-78
2021/08/03 06:53:09;;;;;;;9.52;4.70;;;17.30;99.90;;;;;;4993025;28;20286;-78
2021/08/03 06:55:41;;;;;;;6.00;4.18;;;17.50;99.90;;;;;;4993067;28;20235;-78
2021/08/03 06:58:16;;;;;;;14.10;4.47;;;17.60;99.90;;;;;;4992027;28;20630;-79
2021/08/03 07:00:44;;;;;;;10.15;4.50;;;17.50;99.90;;;;;;4999942;28;20168;-78
2021/08/03 07:03:10;;;;;;;12.77;4.70;;;17.80;99.90;;;;;;5010943;28;20179;-81
2021/08/03 07:05:43;;;;;;;5.05;4.20;;;18.10;99.90;;;;;;5011300;28;20689;-80
2021/08/03 07:08:10;;;;;;;4.25;3.35;;;18.30;99.90;;;;;;5011449;28;20196;-83
2021/08/03 07:10:37;;;;;;;8.23;4.85;;;18.40;99.90;;;;;;5012253;28;20256;-80
2021/08/03 07:13:03;;;;;;;9.73;4.30;;;18.50;99.90;;;;;;5011097;28;20212;-81
2021/08/03 07:15:29;;;;;;;9.05;4.25;;;18.50;99.90;;;;;;5011935;28;20700;-83
2021/08/03 07:17:55;;;;;;;5.43;4.40;;;18.30;99.90;;;;;;5011152;28;20218;-81
2021/08/03 07:20:23;;;;;;;4.95;3.95;;;18.70;99.90;;;;;;5012260;28;20173;-82
2021/08/03 07:22:49;;;;;;;3.72;3.10;;;18.90;99.90;;;;;;5012235;28;20263;-79
2021/08/03 07:25:16;;;;;;;6.45;4.10;;;19.10;99.90;;;;;;5012191;28;20187;-83
2021/08/03 07:27:42;;;;;;;5.97;3.58;;;19.50;99.90;;;;;;5013562;28;20179;-80
2021/08/03 07:30:10;;;;;;;4.15;3.10;;;19.70;99.90;;;;;;5013395;28;20160;-82
2021/08/03 07:32:37;;;;;;;4.07;2.80;;;19.20;99.90;;;;;;5013047;28;20258;-86
2021/08/03 07:35:05;;;;;;;8.45;3.42;;;19.30;99.90;;;;;;5013337;28;20259;-82
2021/08/03 07:37:31;;;;;;;12.32;3.13;;;19.50;99.90;;;;;;5011814;28;20266;-84
2021/08/03 07:39:58;;;;;;;4.60;3.05;;;19.60;99.90;;;;;;5012525;28;20238;-79
2021/08/03 07:42:24;;;;;;;6.32;3.67;;;19.60;99.90;;;;;;5012617;28;20688;-81
2021/08/03 07:44:50;;;;;;;6.63;3.47;;;20.00;99.90;;;;;;5012427;28;20230;-80
2021/08/03 07:47:16;;;;;;;5.90;3.65;;;20.10;99.90;;;;;;5011446;28;20295;-81
2021/08/03 07:49:42;;;;;;;8.23;3.72;;;19.90;99.90;;;;;;5013690;28;20169;-79
2021/08/03 07:52:08;;;;;;;6.18;3.90;;;20.00;99.90;;;;;;5017658;28;20208;-81
2021/08/03 07:54:34;;;;;;;6.00;3.33;;;20.20;99.90;;;;;;5016523;28;20256;-85
2021/08/03 07:57:00;;;;;;;4.40;3.15;;;20.10;99.90;;;;;;5017778;28;20272;-84
2021/08/03 07:59:27;;;;;;;7.75;4.40;;;20.20;99.90;;;;;;5016154;28;20604;-83
2021/08/03 08:01:54;;;;;;;4.72;3.92;;;20.20;99.90;;;;;;5018071;28;20169;-85
2021/08/03 08:04:20;;;;;;;6.03;3.63;;;20.40;99.90;;;;;;5015315;28;20269;-85
2021/08/03 08:06:46;;;;;;;4.38;3.97;;;20.50;99.90;;;;;;5015731;28;20816;-92
2021/08/03 08:09:11;;;;;;;7.50;4.05;;;20.20;99.90;;;;;;5016504;28;20187;-82
2021/08/03 08:11:37;;;;;;;12.82;4.43;;;19.60;99.90;;;;;;5015270;28;20191;-81
2021/08/03 08:14:03;;;;;;;7.35;4.63;;;19.90;99.90;;;;;;5015207;28;20208;-79
2021/08/03 08:16:28;;;;;;;6.93;4.70;;;19.90;99.90;;;;;;5014078;28;20539;-79
2021/08/03 08:18:54;;;;;;;8.30;4.18;;;19.70;99.90;;;;;;5015349;28;20172;-79
2021/08/03 08:21:19;;;;;;;10.90;4.88;;;19.90;99.90;;;;;;5014230;28;20173;-79
2021/08/03 08:23:45;;;;;;;7.03;4.07;;;20.00;99.90;;;;;;5014330;28;20526;-79
2021/08/03 08:26:11;;;;;;;10.57;5.43;;;19.90;99.90;;;;;;5015662;28;20653;-79
2021/08/03 08:28:36;;;;;;;5.82;4.07;;;19.50;99.90;;;;;;5014976;28;20188;-87
2021/08/03 08:31:02;;;;;;;5.45;4.35;;;19.60;99.90;;;;;;5016211;28;20691;-87
2021/08/03 08:33:28;;;;;;;4.80;4.22;;;19.30;99.90;;;;;;5015438;28;20224;-88
2021/08/03 08:35:53;;;;;;;7.72;4.38;;;19.40;99.90;;;;;;5016341;28;20300;-87
2021/08/03 08:38:19;;;;;;;4.78;4.18;;;19.70;99.90;;;;;;5018602;28;20183;-87
2021/08/03 08:40:45;;;;;;;6.72;4.30;;;19.50;99.90;;;;;;5018907;28;20219;-87
2021/08/03 08:43:16;;;;;;;16.23;4.38;;;19.50;99.90;;;;;;5016950;28;20168;-86
2021/08/03 08:45:45;;;;;;;5.03;4.57;;;19.70;99.90;;;;;;5017855;28;20184;-80
2021/08/03 08:48:12;;;;;;;5.35;3.88;;;19.80;99.90;;;;;;5016028;28;20192;-86
2021/08/03 08:50:39;;;;;;;7.75;4.28;;;20.10;99.90;;;;;;5014654;28;20203;-82
2021/08/03 08:53:05;;;;;;;6.93;3.72;;;19.90;99.90;;;;;;5014206;28;20208;-85
2021/08/03 08:55:30;;;;;;;5.22;3.28;;;20.20;99.90;;;;;;5014020;28;20718;-86
2021/08/03 08:57:58;;;;;;;8.88;3.72;;;20.40;99.90;;;;;;5018908;28;20695;-86
2021/08/03 09:00:24;;;;;;;3.85;2.80;;;20.70;99.90;;;;;;5018160;28;20165;-86
2021/08/03 09:02:53;;;;;;;4.70;3.38;;;20.90;99.90;;;;;;5016279;28;20168;-82
2021/08/03 09:05:28;;;;;;;2.80;2.28;;;21.00;99.90;;;;;;5016586;28;20188;-85
2021/08/03 09:07:56;;;;;;;5.40;2.55;;;21.10;99.90;;;;;;5015438;28;20622;-85
2021/08/03 09:10:37;;;;;;;5.70;2.05;;;21.20;99.90;;;;;;4999901;28;20187;-86
2021/08/03 09:13:10;;;;;;;2.33;2.03;;;21.20;99.90;;;;;;5017337;28;20309;-81
2021/08/03 09:15:39;;;;;;;7.30;2.30;;;21.30;99.90;;;;;;5016473;28;20233;-84
2021/08/03 09:18:11;;;;;;;4.28;1.60;;;20.60;99.90;;;;;;5014655;28;20214;-85
2021/08/03 09:20:37;;;;;;;11.30;2.38;;;20.40;99.90;;;;;;5015186;28;20228;-81
2021/08/03 09:23:02;;;;;;;5.18;2.15;;;20.60;99.90;;;;;;5014430;28;20222;-85
2021/08/03 09:25:28;;;;;;;4.20;2.10;;;20.50;99.90;;;;;;5015720;28;20314;-86
2021/08/03 09:28:01;;;;;;;2.80;1.70;;;20.60;99.90;;;;;;5015085;28;20188;-84
2021/08/03 09:30:33;;;;;;;2.10;1.90;;;20.60;99.90;;;;;;5015093;28;20164;-84
2021/08/03 09:32:59;;;;;;;2.92;2.60;;;21.10;99.90;;;;;;5019760;28;20264;-81
2021/08/03 09:35:26;;;;;;;5.85;3.40;;;21.40;99.90;;;;;;5017457;28;20353;-84
2021/08/03 09:37:53;;;;;;;3.80;2.40;;;21.50;99.90;;;;;;5027844;28;20180;-82
2021/08/03 09:40:33;;;;;;;6.18;4.03;;;21.80;99.90;;;;;;5035668;28;20191;-84
2021/08/03 09:43:02;;;;;;;5.72;3.15;;;21.80;99.90;;;;;;5035264;28;20195;-82
2021/08/03 09:45:30;;;;;;;4.30;2.88;;;22.00;99.90;;;;;;5017706;28;20224;-82
2021/08/03 09:48:16;;;;;;;4.97;2.80;;;21.60;99.90;;;;;;5013443;28;20175;-82
2021/08/03 09:51:07;;;;;;;3.40;2.42;;;21.70;99.90;;;;;;5013029;28;20588;-82
2021/08/03 09:53:46;;;;;;;3.90;2.13;;;21.20;99.90;;;;;;5014874;28;20239;-82
2021/08/03 09:56:26;;;;;;;3.00;2.10;;;20.40;99.90;;;;;;5014480;28;20235;-83
2021/08/03 09:59:03;;;;;;;5.25;2.45;;;19.80;99.90;;;;;;5013300;28;20177;-82
2021/08/03 10:01:30;;;;;;;2.65;2.30;;;19.90;99.90;;;;;;5014404;28;20544;-83
2021/08/03 10:04:10;;;;;;;5.47;2.30;;;20.10;99.90;;;;;;5014024;28;20160;-83
2021/08/03 10:06:37;;;;;;;3.78;2.35;;;20.00;99.90;;;;;;5013812;28;20246;-82
2021/08/03 10:09:05;;;;;;;4.20;2.20;;;20.30;99.90;;;;;;5012654;28;20179;-83
2021/08/03 10:11:31;;;;;;;2.70;2.10;;;20.80;99.90;;;;;;5012640;28;20172;-83
2021/08/03 10:13:57;;;;;;;1.83;1.73;;;21.10;99.90;;;;;;5013980;28;20226;-83
2021/08/03 10:16:24;;;;;;;3.15;1.70;;;21.40;99.90;;;;;;5012812;28;20185;-83
2021/08/03 10:18:52;;;;;;;3.10;1.85;;;21.50;99.90;;;;;;5012624;28;20172;-82
2021/08/03 10:21:28;;;;;;;2.05;1.80;;;21.30;99.90;;;;;;5012946;28;20180;-83
2021/08/03 10:23:57;;;;;;;2.10;1.90;;;21.30;99.90;;;;;;5013672;28;20177;-83
2021/08/03 10:26:24;;;;;;;5.43;2.20;;;21.10;99.90;;;;;;5012355;28;20184;-83
2021/08/03 10:29:09;;;;;;;7.45;2.63;;;20.90;99.90;;;;;;5013763;28;20172;-83
2021/08/03 10:31:40;;;;;;;3.42;1.95;;;21.10;99.90;;;;;;5011748;28;20566;-81
2021/08/03 10:34:07;;;;;;;1.92;1.83;;;21.40;99.90;;;;;;5011925;28;20689;-81
2021/08/03 10:36:41;;;;;;;3.45;2.03;;;21.60;99.90;;;;;;5011840;28;20202;-81
2021/08/03 10:39:14;;;;;;;7.55;2.83;;;21.70;99.90;;;;;;5011999;28;20636;-80
2021/08/03 10:41:58;;;;;;;4.75;2.67;;;21.40;99.90;;;;;;5011766;28;20172;-79
2021/08/03 10:44:42;;;;;;;3.88;3.03;;;21.40;99.90;;;;;;5011764;28;20586;-81
2021/08/03 10:47:41;;;;;;;6.32;2.50;;;21.40;99.90;;;;;;5013100;28;20691;-80
2021/08/03 10:50:12;;;;;;;10.38;2.92;;;21.60;99.90;;;;;;5014466;28;20173;-79
2021/08/03 10:52:44;;;;;;;4.72;2.40;;;21.30;99.90;;;;;;5013316;28;20203;-81
2021/08/03 10:55:35;;;;;;;3.22;2.47;;;21.30;99.90;;;;;;5013121;28;20624;-79
2021/08/03 10:58:16;;;;;;;2.47;2.28;;;21.60;99.90;;;;;;5013200;28;20251;-79
2021/08/03 11:00:52;;;;;;;3.47;2.55;;;21.70;99.90;;;;;;5013089;28;20172;-79
2021/08/03 11:06:11;;;;;;;3.80;2.40;;;21.60;99.90;;;;;;5015787;28;20684;-83
2021/08/03 11:08:41;;;;;;;4.13;3.10;;;21.60;99.90;;;;;;5013437;28;20207;-83
2021/08/03 11:11:23;;;;;;;4.18;3.35;;;21.90;99.90;;;;;;5013000;28;20230;-94
2021/08/03 11:13:54;;;;;;;3.38;3.08;;;21.90;99.90;;;;;;5015910;28;20203;-88
2021/08/03 11:16:19;;;;;;;4.55;2.88;;;22.00;99.90;;;;;;5015516;28;20188;-89
2021/08/03 11:18:47;;;;;;;4.10;3.40;;;22.10;99.90;;;;;;5014430;28;20187;-87
2021/08/03 11:21:17;;;;;;;3.05;2.45;;;21.80;99.90;;;;;;5012835;28;20175;-83
2021/08/03 11:24:04;;;;;;;4.07;3.78;;;22.10;99.90;;;;;;5013640;28;20172;-83
2021/08/03 11:26:33;;;;;;;4.95;3.60;;;22.30;99.90;;;;;;5016291;28;20560;-86
2021/08/03 11:29:00;;;;;;;4.45;4.05;;;22.30;99.90;;;;;;5017515;28;20680;-84
2021/08/03 11:31:48;;;;;;;5.20;3.78;;;22.20;99.90;;;;;;5017966;28;20176;-86
2021/08/03 11:34:21;;;;;;;6.22;3.28;;;21.90;99.90;;;;;;5016976;28;20212;-84
2021/08/03 11:36:57;;;;;;;3.60;2.60;;;21.20;99.90;;;;;;5016163;28;20200;-87
2021/08/03 11:39:28;;;;;;;2.70;2.50;;;20.90;99.90;;;;;;5016084;28;20178;-83
2021/08/03 11:41:54;;;;;;;3.05;2.63;;;20.90;99.90;;;;;;5017758;28;20625;-84
2021/08/03 11:44:21;;;;;;;6.15;4.05;;;20.90;99.90;;;;;;5017827;28;20173;-83
2021/08/03 11:47:00;;;;;;;6.90;4.18;;;21.10;99.90;;;;;;5015734;28;20230;-88
2021/08/03 11:49:34;;;;;;;3.40;3.10;;;21.30;99.90;;;;;;5016319;28;20161;-85
2021/08/03 11:52:16;;;;;;;4.85;4.15;;;21.40;99.90;;;;;;5017294;28;20781;-86
2021/08/03 11:54:45;;;;;;;3.88;3.58;;;21.60;99.90;;;;;;5015744;28;20184;-84
2021/08/03 11:57:25;;;;;;;4.15;3.85;;;21.60;99.90;;;;;;5015621;28;20361;-84
2021/08/03 12:00:12;;;;;;;5.20;4.80;;;21.60;99.90;;;;;;5016061;28;20168;-86
2021/08/03 12:02:39;;;;;;;4.93;4.53;;;21.80;99.90;;;;;;5015602;28;20267;-88
2021/08/03 12:05:20;;;;;;;4.38;4.03;;;22.00;99.90;;;;;;5017100;28;20219;-87
2021/08/03 12:08:01;;;;;;;4.80;4.25;;;21.80;99.90;;;;;;5017011;28;20617;-87
2021/08/03 12:10:44;;;;;;;4.78;4.38;;;21.90;99.90;;;;;;5015663;28;20175;-86
2021/08/03 12:13:26;;;;;;;5.70;4.32;;;22.00;99.90;;;;;;5015455;28;20638;-89
2021/08/03 12:15:55;;;;;;;5.55;4.45;;;22.30;99.90;;;;;;5015160;28;20197;-84
2021/08/03 12:18:21;;;;;;;4.38;3.97;;;22.50;99.90;;;;;;5016699;28;20185;-83
2021/08/03 12:20:52;;;;;;;4.88;4.05;;;22.90;99.90;;;;;;5017893;28;20175;-83
2021/08/03 12:23:19;;;;;;;12.00;4.72;;;22.90;99.90;;;;;;5015591;28;20227;-80
2021/08/03 12:26:05;;;;;;;9.55;4.22;;;23.10;99.90;;;;;;5023495;28;20212;-80
2021/08/03 12:28:51;;;;;;;7.82;3.88;;;22.80;99.90;;;;;;5035014;28;20225;-81
2021/08/03 12:31:31;;;;;;;4.80;4.28;;;23.00;99.90;;;;;;5038612;28;20172;-88
2021/08/03 12:34:06;;;;;;;3.88;3.58;;;23.20;99.90;;;;;;5037240;28;20208;-84
2021/08/03 12:36:46;;;;;;;8.50;4.13;;;23.20;99.90;;;;;;5016740;28;20208;-89
2021/08/03 12:39:27;;;;;;;5.30;4.15;;;23.60;99.90;;;;;;5015665;28;20192;-82
2021/08/03 12:42:05;;;;;;;5.63;5.18;;;23.90;99.90;;;;;;5016245;28;20169;-82
2021/08/03 12:44:37;;;;;;;5.38;3.88;;;23.70;99.90;;;;;;5015164;28;20660;-89
2021/08/03 12:47:36;;;;;;;4.05;3.75;;;22.90;99.90;;;;;;5016359;28;20196;-85
2021/08/03 12:50:12;;;;;;;5.53;5.03;;;22.70;99.90;;;;;;4993912;28;20181;-83
2021/08/03 12:52:56;;;;;;;5.57;5.07;;;22.50;99.90;;;;;;5016587;28;20253;-87
2021/08/03 12:55:26;;;;;;;5.82;4.55;;;22.30;99.90;;;;;;5017023;28;20195;-80
2021/08/03 12:57:57;;;;;;;4.35;3.92;;;22.40;99.90;;;;;;5015017;28;20631;-81
2021/08/03 13:00:37;;;;;;;4.95;4.20;;;22.60;99.90;;;;;;5015301;28;20663;-81
2021/08/03 13:03:12;;;;;;;5.40;4.78;;;22.80;99.90;;;;;;5016171;28;20176;-91
2021/08/03 13:05:41;;;;;;;5.68;4.22;;;22.70;99.90;;;;;;5014805;28;20219;-81
2021/08/03 13:08:08;;;;;;;11.23;5.05;;;23.00;99.90;;;;;;5014663;28;20206;-83